Time;durP1;ratioP1;P1;durP2;ratioP2;P2;SDS_P1;SDS_P2;PMS_P1;PMS_P2;Temp;Humidity;BMP_temperature;BMP_pressure;BME280_temperature;BME280_humidity;BME280_pressure;Samples;Min_cycle;Max_cycle;Signal;HPM_P1;HPM_P2
2023/10/11 11:23:49;;;;;;;;;;;;;;;;;;;;;
2023/10/11 12:29:54;;;;;;;16.57;4.93;;;32.10;73.20;;;;;;5800704;24;20426;-81
2023/10/11 12:35:41;;;;;;;12.30;5.20;;;32.20;72.70;;;;;;6007138;23;20533;-80
2023/10/11 12:38:38;;;;;;;10.83;5.23;;;32.80;71.40;;;;;;6152079;23;20412;-80
2023/10/11 12:41:26;;;;;;;10.23;5.10;;;33.20;69.60;;;;;;6184045;22;20427;-82
2023/10/11 12:44:14;;;;;;;11.33;4.87;;;33.00;69.20;;;;;;6283055;22;20425;-80
2023/10/11 12:47:04;;;;;;;10.27;5.40;;;33.40;68.70;;;;;;6278888;22;20538;-81
2023/10/11 12:50:06;;;;;;;14.37;5.27;;;33.50;67.60;;;;;;6257787;22;20412;-79
2023/10/11 12:59:22;;;;;;;7.90;4.23;;;33.80;65.00;;;;;;6272042;22;20400;-81
2023/10/11 13:02:30;;;;;;;8.40;4.43;;;33.40;63.90;;;;;;6279990;22;20720;-80
2023/10/11 13:11:35;;;;;;;11.20;5.50;;;33.00;62.40;;;;;;6269639;22;20400;-79
2023/10/11 13:14:47;;;;;;;7.10;4.47;;;32.70;61.10;;;;;;6283860;22;20407;-83
2023/10/11 13:18:09;;;;;;;10.57;4.37;;;32.80;59.50;;;;;;6282058;22;20450;-82
2023/10/11 13:21:17;;;;;;;6.50;4.30;;;33.30;63.80;;;;;;6249312;22;20438;-80
2023/10/11 13:24:08;;;;;;;8.47;4.23;;;33.70;64.00;;;;;;6282863;22;20440;-81
2023/10/11 13:29:38;;;;;;;4.97;4.00;;;33.70;58.60;;;;;;6278607;22;21079;-81
2023/10/11 13:32:09;;;;;;;5.73;3.57;;;33.20;56.00;;;;;;6291509;22;20395;-80
2023/10/11 13:34:52;;;;;;;8.03;3.67;;;31.70;57.90;;;;;;6289299;22;20411;-80
2023/10/11 13:37:37;;;;;;;5.50;3.60;;;31.90;58.30;;;;;;6289682;22;20444;-82
2023/10/11 13:40:52;;;;;;;5.90;3.47;;;32.30;57.00;;;;;;6293342;22;20404;-83
2023/10/11 13:43:48;;;;;;;7.30;3.70;;;32.00;57.10;;;;;;6293304;22;20471;-82
2023/10/11 13:46:42;;;;;;;5.27;3.40;;;32.30;56.80;;;;;;6293010;22;20438;-82
2023/10/11 13:52:36;;;;;;;4.70;3.50;;;32.40;56.30;;;;;;6288130;22;20404;-79
2023/10/11 13:55:17;;;;;;;5.07;3.50;;;31.70;55.80;;;;;;6295953;22;20408;-80
2023/10/11 13:57:58;;;;;;;5.53;3.37;;;30.80;56.00;;;;;;6295383;22;20412;-81
2023/10/11 14:04:06;;;;;;;5.00;3.50;;;30.80;56.60;;;;;;6298567;22;20420;-80
2023/10/11 14:07:21;;;;;;;6.07;3.70;;;31.10;56.20;;;;;;6297635;22;20443;-80
2023/10/11 14:16:41;;;;;;;7.80;3.50;;;30.90;55.50;;;;;;6241411;22;20416;-82
2023/10/11 14:22:37;;;;;;;6.93;4.00;;;30.90;56.10;;;;;;6295557;22;20392;-82
2023/10/11 14:25:47;;;;;;;6.03;3.50;;;31.60;55.50;;;;;;6295659;22;20400;-79
2023/10/11 14:31:33;;;;;;;5.13;3.43;;;31.10;55.00;;;;;;6245248;22;20388;-80
2023/10/11 14:34:19;;;;;;;6.40;3.70;;;30.70;56.00;;;;;;6298655;22;20392;-80
2023/10/11 14:37:07;;;;;;;;;;;;;;;;;;;;;
2023/10/11 14:40:05;;;;;;;8.13;4.07;;;30.80;56.30;;;;;;6301536;22;20436;-79
2023/10/11 14:50:11;;;;;;;4.07;3.13;;;30.10;56.90;;;;;;6237466;22;20732;-81
2023/10/11 14:53:00;;;;;;;6.10;4.00;;;30.10;56.70;;;;;;6159393;23;20942;-79
2023/10/11 14:56:09;;;;;;;3.73;3.10;;;29.70;57.50;;;;;;6158294;23;20467;-81
2023/10/11 14:59:12;;;;;;;5.07;3.63;;;29.70;57.40;;;;;;6169393;23;20761;-78
2023/10/11 15:02:06;;;;;;;4.70;3.40;;;29.60;57.70;;;;;;6171178;23;20810;-81
2023/10/11 15:05:31;;;;;;;5.73;3.30;;;29.50;57.90;;;;;;6166530;23;20444;-80
2023/10/11 15:11:29;;;;;;;4.87;3.43;;;29.20;58.20;;;;;;6282088;22;20403;-80
2023/10/11 15:14:13;;;;;;;6.80;3.90;;;29.20;58.10;;;;;;6286844;22;20794;-81
2023/10/11 15:16:52;;;;;;;6.07;3.77;;;29.00;58.40;;;;;;6281981;22;20404;-80
2023/10/11 15:19:49;;;;;;;4.50;3.40;;;28.70;59.10;;;;;;6284427;22;20799;-82
